Time;durP1;ratioP1;P1;durP2;ratioP2;P2;SDS_P1;SDS_P2;PMS_P1;PMS_P2;Temp;Humidity;BMP_temperature;BMP_pressure;BME280_temperature;BME280_humidity;BME280_pressure;Samples;Min_cycle;Max_cycle;Signal;HPM_P1;HPM_P2
2022/06/28 00:01:12;;;;;;;;;4.50;3.50;;;;;;;;5096534;27;45447;-47
2022/06/28 00:03:38;;;;;;;;;2.75;1.75;;;;;;;;5099024;27;45390;-48
2022/06/28 00:06:03;;;;;;;;;3.75;3.50;;;;;;;;5098845;27;45389;-43
2022/06/28 00:08:28;;;;;;;;;4.00;2.25;;;;;;;;5098490;27;46347;-43
2022/06/28 00:10:53;;;;;;;;;3.50;3.00;;;;;;;;5098772;27;45328;-48
2022/06/28 00:13:19;;;;;;;;;11.25;7.50;;;;;;;;5098204;27;45298;-48
2022/06/28 00:18:28;;;;;;;;;2.80;1.80;;;;;;;;5098331;27;46308;-49
2022/06/28 00:20:53;;;;;;;;;3.00;2.00;;;;;;;;5098488;27;45228;-50
2022/06/28 00:23:18;;;;;;;;;5.00;3.00;;;;;;;;5096512;27;45292;-48
2022/06/28 00:25:43;;;;;;;;;6.00;3.00;;;;;;;;5099008;27;45281;-47
2022/06/28 00:28:09;;;;;;;;;2.50;2.50;;;;;;;;5096587;27;46670;-45
2022/06/28 00:30:34;;;;;;;;;2.75;2.75;;;;;;;;5098240;27;45347;-47
2022/06/28 00:32:59;;;;;;;;;3.50;3.00;;;;;;;;5098369;27;45211;-48
2022/06/28 00:35:24;;;;;;;;;3.25;1.75;;;;;;;;5096917;27;45529;-48
2022/06/28 00:37:50;;;;;;;;;1.50;1.50;;;;;;;;5098023;27;45634;-48
2022/06/28 00:40:15;;;;;;;;;2.00;2.00;;;;;;;;5098138;27;45378;-48
2022/06/28 00:42:40;;;;;;;;;2.00;2.00;;;;;;;;5097893;27;45275;-46
2022/06/28 00:45:06;;;;;;;;;2.00;2.00;;;;;;;;5098581;27;45474;-49
2022/06/28 00:47:31;;;;;;;;;3.00;3.00;;;;;;;;5097489;27;46130;-49
2022/06/28 00:49:57;;;;;;;;;1.00;1.00;;;;;;;;5098485;27;45382;-46
2022/06/28 00:52:22;;;;;;;;;6.00;2.75;;;;;;;;5096734;27;45440;-46
2022/06/28 00:54:47;;;;;;;;;5.00;3.00;;;;;;;;5097957;27;45554;-48
2022/06/28 00:57:13;;;;;;;;;1.75;1.50;;;;;;;;5097607;27;46635;-48
2022/06/28 00:59:38;;;;;;;;;2.00;1.50;;;;;;;;5097942;27;45212;-48
2022/06/28 01:02:03;;;;;;;;;2.25;2.25;;;;;;;;5098350;27;45241;-51
2022/06/28 01:04:28;;;;;;;;;4.00;4.00;;;;;;;;5097168;27;45322;-50
2022/06/28 01:06:54;;;;;;;;;2.25;2.00;;;;;;;;5068239;27;49525;-50
2022/06/28 01:09:19;;;;;;;;;1.75;1.50;;;;;;;;5097842;27;45303;-47
2022/06/28 01:11:45;;;;;;;;;2.25;2.25;;;;;;;;5097859;27;45841;-44
2022/06/28 01:14:10;;;;;;;;;2.00;2.00;;;;;;;;5097707;27;45680;-46
2022/06/28 01:16:35;;;;;;;;;3.00;3.00;;;;;;;;5097724;27;46495;-46
2022/06/28 01:19:01;;;;;;;;;3.25;2.00;;;;;;;;5096153;27;45861;-48
2022/06/28 01:21:27;;;;;;;;;2.50;2.50;;;;;;;;5097782;27;45370;-49
2022/06/28 01:23:53;;;;;;;;;3.40;2.00;;;;;;;;5097595;27;45461;-47
2022/06/28 01:26:21;;;;;;;;;1.00;1.00;;;;;;;;5097910;27;46646;-48
2022/06/28 01:28:47;;;;;;;;;5.60;5.20;;;;;;;;5097366;27;45371;-43
2022/06/28 01:31:12;;;;;;;;;6.50;4.25;;;;;;;;5097759;27;45406;-47
2022/06/28 01:33:38;;;;;;;;;2.00;2.00;;;;;;;;5098045;27;45159;-48
2022/06/28 01:36:04;;;;;;;;;2.00;2.00;;;;;;;;5097037;27;46050;-49
2022/06/28 01:38:29;;;;;;;;;3.00;1.80;;;;;;;;5097749;27;45414;-52
2022/06/28 01:40:55;;;;;;;;;2.25;2.25;;;;;;;;5097819;27;45346;-49
2022/06/28 01:43:20;;;;;;;;;5.00;3.00;;;;;;;;5097775;27;45530;-48
2022/06/28 01:45:45;;;;;;;;;2.00;2.00;;;;;;;;5097248;27;45591;-47
2022/06/28 01:48:10;;;;;;;;;2.25;1.25;;;;;;;;5097226;27;45228;-49
2022/06/28 01:50:37;;;;;;;;;4.50;1.75;;;;;;;;5096472;27;45413;-48
2022/06/28 01:53:02;;;;;;;;;6.00;5.00;;;;;;;;5097222;27;45868;-48
2022/06/28 01:55:27;;;;;;;;;1.25;0.00;;;;;;;;5096986;27;46848;-51
2022/06/28 01:57:52;;;;;;;;;1.00;1.00;;;;;;;;5097263;27;45386;-51
2022/06/28 02:00:18;;;;;;;;;2.75;2.75;;;;;;;;5096847;27;45406;-49
2022/06/28 02:02:43;;;;;;;;;2.00;1.00;;;;;;;;5097483;27;45401;-46
2022/06/28 02:05:08;;;;;;;;;1.75;1.00;;;;;;;;5096649;27;45528;-46
2022/06/28 02:07:34;;;;;;;;;0.50;0.50;;;;;;;;5096001;27;45364;-43
2022/06/28 02:09:59;;;;;;;;;1.75;1.00;;;;;;;;5097234;27;45425;-45
2022/06/28 02:12:28;;;;;;;;;0.25;0.25;;;;;;;;5097135;27;45291;-48
2022/06/28 02:14:53;;;;;;;;;0.80;0.80;;;;;;;;5096752;27;45550;-49
2022/06/28 02:17:19;;;;;;;;;1.50;1.00;;;;;;;;5096666;27;45294;-50
2022/06/28 02:19:44;;;;;;;;;1.00;1.00;;;;;;;;5096886;27;45751;-48
2022/06/28 02:22:09;;;;;;;;;2.75;1.75;;;;;;;;5097265;27;45698;-49
2022/06/28 02:24:34;;;;;;;;;1.00;1.00;;;;;;;;5096298;27;45545;-47
2022/06/28 02:27:01;;;;;;;;;1.00;1.00;;;;;;;;5096578;27;45488;-45
2022/06/28 02:29:26;;;;;;;;;3.00;3.00;;;;;;;;5096481;27;45320;-48
2022/06/28 02:31:51;;;;;;;;;3.50;1.00;;;;;;;;5096614;27;45490;-48
2022/06/28 02:42:28;;;;;;;;;0.80;0.60;;;;;;;;5095357;27;45386;-47
2022/06/28 02:44:54;;;;;;;;;1.00;1.00;;;;;;;;5096119;27;46514;-47
2022/06/28 02:47:19;;;;;;;;;3.75;3.75;;;;;;;;5096335;27;45932;-50
2022/06/28 02:49:44;;;;;;;;;2.00;2.00;;;;;;;;5096300;27;45468;-47
2022/06/28 02:52:09;;;;;;;;;3.50;2.50;;;;;;;;5096528;27;45366;-45
2022/06/28 02:54:35;;;;;;;;;2.00;2.00;;;;;;;;5081485;27;46029;-44
2022/06/28 02:57:00;;;;;;;;;3.75;3.50;;;;;;;;5100043;27;46052;-48
2022/06/28 02:59:25;;;;;;;;;4.50;3.25;;;;;;;;5115000;27;45471;-49
2022/06/28 03:01:51;;;;;;;;;3.00;1.50;;;;;;;;5117209;27;45335;-49
2022/06/28 03:04:16;;;;;;;;;2.00;2.00;;;;;;;;5116715;27;46423;-47
2022/06/28 03:06:41;;;;;;;;;2.00;1.50;;;;;;;;5114723;27;45796;-49
2022/06/28 03:09:06;;;;;;;;;2.50;2.25;;;;;;;;5116918;27;45728;-48
2022/06/28 03:11:32;;;;;;;;;2.00;1.00;;;;;;;;5116709;27;45457;-46
2022/06/28 03:13:57;;;;;;;;;3.00;1.00;;;;;;;;5116246;27;45398;-44
2022/06/28 03:16:22;;;;;;;;;6.50;4.25;;;;;;;;5116357;27;45394;-42
2022/06/28 03:18:48;;;;;;;;;2.00;2.00;;;;;;;;5117835;27;45501;-46
2022/06/28 03:21:13;;;;;;;;;3.25;2.25;;;;;;;;5120239;27;45378;-46
2022/06/28 03:23:38;;;;;;;;;0.25;0.00;;;;;;;;5119686;27;45593;-48
2022/06/28 03:26:04;;;;;;;;;1.00;1.00;;;;;;;;5119620;27;45391;-47
2022/06/28 03:28:29;;;;;;;;;2.25;0.75;;;;;;;;5120036;27;45145;-49
2022/06/28 03:30:54;;;;;;;;;0.75;0.50;;;;;;;;5119798;27;45589;-47
2022/06/28 03:33:19;;;;;;;;;3.25;1.00;;;;;;;;5119808;27;45435;-45
2022/06/28 03:35:45;;;;;;;;;0.00;0.00;;;;;;;;5108141;27;45305;-48
2022/06/28 03:38:10;;;;;;;;;1.00;0.00;;;;;;;;5099164;27;45489;-46
2022/06/28 03:40:35;;;;;;;;;1.50;0.75;;;;;;;;5099342;27;45237;-42
2022/06/28 03:43:00;;;;;;;;;2.25;1.00;;;;;;;;5098732;27;47169;-45
2022/06/28 03:45:26;;;;;;;;;1.25;1.00;;;;;;;;5099007;27;45255;-46
2022/06/28 03:47:51;;;;;;;;;0.00;0.00;;;;;;;;5099057;27;45347;-47
2022/06/28 03:50:16;;;;;;;;;1.00;1.00;;;;;;;;5097857;27;45189;-49
2022/06/28 03:52:41;;;;;;;;;0.00;0.00;;;;;;;;5098694;27;46189;-47
2022/06/28 03:55:07;;;;;;;;;0.75;0.75;;;;;;;;5098760;27;45382;-50
2022/06/28 03:57:32;;;;;;;;;1.25;1.00;;;;;;;;5099168;27;45342;-49
2022/06/28 03:59:59;;;;;;;;;1.00;1.00;;;;;;;;5067508;27;45694;-46
2022/06/28 04:02:25;;;;;;;;;2.20;1.00;;;;;;;;5119514;27;46171;-44
2022/06/28 04:04:50;;;;;;;;;1.00;1.00;;;;;;;;5117910;27;45326;-47
2022/06/28 04:07:15;;;;;;;;;1.00;1.00;;;;;;;;5119342;27;45828;-49
2022/06/28 04:09:41;;;;;;;;;1.00;1.00;;;;;;;;5119606;27;45357;-50
2022/06/28 04:12:06;;;;;;;;;0.00;0.00;;;;;;;;5119340;27;45607;-48
2022/06/28 04:14:31;;;;;;;;;1.00;1.00;;;;;;;;5119378;27;45521;-47
2022/06/28 04:16:57;;;;;;;;;1.25;0.25;;;;;;;;5119490;27;45700;-47
2022/06/28 04:19:22;;;;;;;;;0.00;0.00;;;;;;;;5119519;27;45471;-48
2022/06/28 04:21:47;;;;;;;;;0.75;0.75;;;;;;;;5117827;27;46755;-45
2022/06/28 04:24:13;;;;;;;;;2.75;1.75;;;;;;;;5118435;27;45345;-42
2022/06/28 04:26:38;;;;;;;;;3.00;1.75;;;;;;;;5119219;27;45501;-41
2022/06/28 04:29:03;;;;;;;;;0.25;0.00;;;;;;;;5119132;27;45482;-47
2022/06/28 04:31:29;;;;;;;;;1.00;1.00;;;;;;;;5117472;27;45924;-48
2022/06/28 04:33:54;;;;;;;;;1.00;1.00;;;;;;;;5117669;27;45382;-48
2022/06/28 04:36:19;;;;;;;;;2.75;2.00;;;;;;;;5103453;27;45323;-47
2022/06/28 04:38:44;;;;;;;;;1.00;1.00;;;;;;;;5098547;27;45430;-47
2022/06/28 04:41:10;;;;;;;;;1.00;1.00;;;;;;;;5097670;27;46638;-48
2022/06/28 04:43:35;;;;;;;;;1.00;1.00;;;;;;;;5098324;27;45267;-48
2022/06/28 04:46:01;;;;;;;;;2.00;1.00;;;;;;;;5098205;27;45335;-46
2022/06/28 04:48:26;;;;;;;;;2.00;0.25;;;;;;;;5098434;27;45208;-45
2022/06/28 04:50:51;;;;;;;;;1.00;1.00;;;;;;;;5097858;27;45530;-44
2022/06/28 04:53:16;;;;;;;;;1.75;1.00;;;;;;;;5098047;27;45219;-44
2022/06/28 04:55:42;;;;;;;;;1.50;0.25;;;;;;;;5098020;27;45256;-44
2022/06/28 04:58:07;;;;;;;;;1.25;1.25;;;;;;;;5098453;27;45159;-48
2022/06/28 05:00:32;;;;;;;;;2.00;1.00;;;;;;;;5097455;27;45621;-46
2022/06/28 05:02:57;;;;;;;;;1.00;1.00;;;;;;;;5089831;27;45599;-49
2022/06/28 05:05:23;;;;;;;;;2.00;1.00;;;;;;;;5096667;27;45847;-50
2022/06/28 05:07:48;;;;;;;;;3.00;1.00;;;;;;;;5098189;27;45300;-51
2022/06/28 05:10:13;;;;;;;;;3.00;1.25;;;;;;;;5097770;27;46697;-46
2022/06/28 05:12:38;;;;;;;;;2.75;1.00;;;;;;;;5097923;27;45357;-47
2022/06/28 05:15:04;;;;;;;;;2.00;2.00;;;;;;;;5097829;27;45328;-44
2022/06/28 05:17:29;;;;;;;;;2.00;2.00;;;;;;;;5097603;27;45347;-46
2022/06/28 05:19:55;;;;;;;;;1.00;1.00;;;;;;;;5097907;27;46629;-49
2022/06/28 05:22:20;;;;;;;;;2.00;2.00;;;;;;;;5097420;27;45482;-48
2022/06/28 05:24:45;;;;;;;;;3.25;3.25;;;;;;;;5097729;27;45414;-48
2022/06/28 05:27:11;;;;;;;;;1.00;1.00;;;;;;;;5098146;27;45599;-48
2022/06/28 05:29:36;;;;;;;;;1.00;1.00;;;;;;;;5097737;27;46882;-50
2022/06/28 05:32:02;;;;;;;;;3.00;3.00;;;;;;;;5097684;27;45525;-45
2022/06/28 05:34:27;;;;;;;;;0.00;0.00;;;;;;;;5098048;27;45484;-44
2022/06/28 05:36:52;;;;;;;;;2.00;1.00;;;;;;;;5097533;27;45719;-42
2022/06/28 05:39:17;;;;;;;;;1.75;1.00;;;;;;;;5098032;27;46509;-43
2022/06/28 05:41:43;;;;;;;;;0.75;0.75;;;;;;;;5094597;27;45489;-44
2022/06/28 05:44:09;;;;;;;;;1.00;1.00;;;;;;;;5096308;27;45499;-47
2022/06/28 05:46:34;;;;;;;;;1.75;1.75;;;;;;;;5097550;27;45387;-49
2022/06/28 05:48:59;;;;;;;;;4.00;3.00;;;;;;;;5096352;27;45724;-52
2022/06/28 05:51:25;;;;;;;;;0.50;0.50;;;;;;;;5097452;27;45755;-49
2022/06/28 05:53:50;;;;;;;;;4.75;2.00;;;;;;;;5097232;27;45258;-47
2022/06/28 05:56:16;;;;;;;;;2.50;1.75;;;;;;;;5097507;27;45249;-46
2022/06/28 05:58:41;;;;;;;;;3.50;2.00;;;;;;;;5097073;27;45197;-46
2022/06/28 06:01:06;;;;;;;;;1.00;1.00;;;;;;;;5097386;27;45155;-44
2022/06/28 06:03:32;;;;;;;;;2.00;2.00;;;;;;;;5097480;27;45254;-44
2022/06/28 06:05:57;;;;;;;;;4.00;2.40;;;;;;;;5096177;27;45526;-47
2022/06/28 06:08:23;;;;;;;;;4.00;1.00;;;;;;;;5097214;27;46466;-46
2022/06/28 06:10:48;;;;;;;;;2.75;2.50;;;;;;;;5068679;27;45512;-46
2022/06/28 06:13:13;;;;;;;;;3.50;2.00;;;;;;;;5113376;27;45522;-48
2022/06/28 06:15:39;;;;;;;;;1.50;1.50;;;;;;;;5117903;27;45354;-49
2022/06/28 06:18:04;;;;;;;;;8.00;7.00;;;;;;;;5117715;27;45882;-49
2022/06/28 06:20:29;;;;;;;;;2.25;2.25;;;;;;;;5117526;27;45417;-48
2022/06/28 06:22:54;;;;;;;;;1.50;1.50;;;;;;;;5117363;27;45405;-46
2022/06/28 06:25:20;;;;;;;;;2.00;2.00;;;;;;;;5117594;27;45364;-46
2022/06/28 06:27:45;;;;;;;;;0.50;0.50;;;;;;;;5117084;27;46418;-46
2022/06/28 06:30:10;;;;;;;;;1.00;1.00;;;;;;;;5116951;27;45615;-51
2022/06/28 06:32:36;;;;;;;;;3.00;3.00;;;;;;;;5117167;27;45354;-47
2022/06/28 06:35:01;;;;;;;;;1.00;1.00;;;;;;;;5113940;27;45458;-52
2022/06/28 06:37:26;;;;;;;;;1.75;1.00;;;;;;;;5096358;27;46010;-50
2022/06/28 06:39:52;;;;;;;;;1.00;1.00;;;;;;;;5096109;27;45470;-48
2022/06/28 06:42:17;;;;;;;;;1.00;1.00;;;;;;;;5096331;27;45364;-46
2022/06/28 06:44:42;;;;;;;;;2.00;2.00;;;;;;;;5096625;27;45713;-46
2022/06/28 06:47:08;;;;;;;;;3.00;2.00;;;;;;;;5095614;27;45903;-44
2022/06/28 06:49:33;;;;;;;;;4.00;4.00;;;;;;;;5096244;27;45445;-43
2022/06/28 06:51:58;;;;;;;;;3.25;2.75;;;;;;;;5094948;27;45414;-44
2022/06/28 06:54:23;;;;;;;;;5.50;4.00;;;;;;;;5099038;27;45393;-46
2022/06/28 06:56:49;;;;;;;;;2.75;1.50;;;;;;;;5099501;27;46562;-47
2022/06/28 06:59:16;;;;;;;;;1.25;1.25;;;;;;;;5099594;27;45484;-49
2022/06/28 07:01:41;;;;;;;;;0.60;0.60;;;;;;;;5098522;27;45244;-49
2022/06/28 07:04:06;;;;;;;;;3.00;1.50;;;;;;;;5100004;27;45575;-47
2022/06/28 07:06:32;;;;;;;;;1.00;1.00;;;;;;;;5098463;27;45840;-47
2022/06/28 07:08:57;;;;;;;;;6.25;3.00;;;;;;;;5099759;27;45262;-45
2022/06/28 07:11:22;;;;;;;;;2.50;2.50;;;;;;;;5099512;27;45877;-43
2022/06/28 07:13:48;;;;;;;;;2.00;2.00;;;;;;;;5099726;27;45274;-41
2022/06/28 07:16:13;;;;;;;;;5.00;5.00;;;;;;;;5093973;27;46249;-43
2022/06/28 07:18:39;;;;;;;;;6.50;5.00;;;;;;;;5079202;27;45310;-44
2022/06/28 07:21:04;;;;;;;;;3.00;2.00;;;;;;;;5070213;27;45415;-47
2022/06/28 07:23:29;;;;;;;;;3.75;3.00;;;;;;;;5099525;27;45537;-51
2022/06/28 07:25:55;;;;;;;;;2.75;2.75;;;;;;;;5099630;27;46242;-49
2022/06/28 07:28:20;;;;;;;;;3.00;3.00;;;;;;;;5099651;27;45394;-54
2022/06/28 07:30:46;;;;;;;;;4.00;3.00;;;;;;;;5099809;27;45364;-49
2022/06/28 07:33:12;;;;;;;;;1.20;1.00;;;;;;;;5099812;27;45382;-48
2022/06/28 07:35:37;;;;;;;;;2.50;2.50;;;;;;;;5099033;27;45936;-47
2022/06/28 07:38:02;;;;;;;;;2.00;2.00;;;;;;;;5099039;27;45315;-45
2022/06/28 07:40:27;;;;;;;;;4.25;2.25;;;;;;;;5099251;27;45332;-44
2022/06/28 07:42:53;;;;;;;;;3.25;3.25;;;;;;;;5099466;27;45446;-47
2022/06/28 07:45:18;;;;;;;;;5.50;3.00;;;;;;;;5099156;27;45851;-46
2022/06/28 07:47:47;;;;;;;;;2.25;2.00;;;;;;;;5098922;27;45304;-46
2022/06/28 07:52:58;;;;;;;;;1.60;1.60;;;;;;;;5099420;27;45389;-46
2022/06/28 07:55:24;;;;;;;;;2.60;2.40;;;;;;;;5098827;27;46308;-47
2022/06/28 07:57:49;;;;;;;;;6.25;3.50;;;;;;;;5098845;27;45327;-44
2022/06/28 08:00:19;;;;;;;;;4.50;2.75;;;;;;;;5099361;27;45338;-42
2022/06/28 08:02:44;;;;;;;;;2.80;2.80;;;;;;;;5099308;27;45339;-49
2022/06/28 08:05:10;;;;;;;;;2.75;2.25;;;;;;;;5097951;27;46909;-48
2022/06/28 08:07:35;;;;;;;;;3.00;2.50;;;;;;;;5098561;27;45261;-48
2022/06/28 08:10:00;;;;;;;;;3.00;2.50;;;;;;;;5097684;27;45308;-47
2022/06/28 08:12:26;;;;;;;;;2.50;2.50;;;;;;;;5099195;27;45284;-47
2022/06/28 08:14:51;;;;;;;;;2.50;2.50;;;;;;;;5098504;27;46740;-45
2022/06/28 08:17:16;;;;;;;;;4.00;3.00;;;;;;;;5098771;27;45982;-44
2022/06/28 08:19:45;;;;;;;;;2.50;2.50;;;;;;;;5068937;27;45488;-45
2022/06/28 08:22:10;;;;;;;;;2.60;2.60;;;;;;;;5080862;27;45626;-47
2022/06/28 08:24:39;;;;;;;;;3.75;1.75;;;;;;;;5096920;27;46169;-52
2022/06/28 08:27:05;;;;;;;;;1.20;1.00;;;;;;;;5097503;27;45394;-45
2022/06/28 08:29:33;;;;;;;;;1.40;1.40;;;;;;;;5098846;27;45266;-44
2022/06/28 08:32:06;;;;;;;;;1.60;1.00;;;;;;;;5097601;27;45282;-48
2022/06/28 08:34:32;;;;;;;;;1.40;1.40;;;;;;;;5098231;27;46300;-52
2022/06/28 08:36:58;;;;;;;;;2.50;1.75;;;;;;;;5097141;27;45427;-51
2022/06/28 08:39:23;;;;;;;;;3.75;3.00;;;;;;;;5097615;27;45312;-48
2022/06/28 08:41:49;;;;;;;;;2.75;2.75;;;;;;;;5098417;27;45597;-45
2022/06/28 08:44:14;;;;;;;;;3.75;3.75;;;;;;;;5079796;27;46997;-48
2022/06/28 08:46:45;;;;;;;;;2.25;1.25;;;;;;;;5079606;27;45399;-48
2022/06/28 08:49:14;;;;;;;;;2.00;2.00;;;;;;;;5097395;27;45605;-49
2022/06/28 08:51:40;;;;;;;;;0.20;0.20;;;;;;;;5097091;27;45590;-45
2022/06/28 08:54:05;;;;;;;;;2.00;2.00;;;;;;;;5098206;27;46113;-44
2022/06/28 08:56:31;;;;;;;;;4.25;3.00;;;;;;;;5096958;27;45442;-54
2022/06/28 08:58:57;;;;;;;;;3.50;2.50;;;;;;;;5096579;27;45567;-51
2022/06/28 09:01:23;;;;;;;;;3.60;2.00;;;;;;;;5098030;27;45451;-51
2022/06/28 09:03:49;;;;;;;;;2.75;2.75;;;;;;;;5096361;27;45484;-53
2022/06/28 09:06:16;;;;;;;;;1.80;1.80;;;;;;;;5096546;27;45319;-51
2022/06/28 09:08:42;;;;;;;;;4.60;2.00;;;;;;;;5096671;27;45337;-47
2022/06/28 09:11:08;;;;;;;;;2.50;1.50;;;;;;;;5097745;27;45632;-45
2022/06/28 09:13:36;;;;;;;;;2.25;1.00;;;;;;;;5097788;27;45721;-47
2022/06/28 09:16:02;;;;;;;;;1.80;1.00;;;;;;;;5097409;27;45439;-53
2022/06/28 09:18:33;;;;;;;;;2.50;1.25;;;;;;;;5096604;27;45443;-49
2022/06/28 09:20:59;;;;;;;;;1.40;1.40;;;;;;;;5077942;27;45506;-44
2022/06/28 09:23:24;;;;;;;;;3.00;2.00;;;;;;;;5097503;27;45459;-46
2022/06/28 09:25:49;;;;;;;;;3.00;2.00;;;;;;;;5081894;27;48346;-49
2022/06/28 09:28:26;;;;;;;;;1.75;1.00;;;;;;;;5095392;27;46531;-47
2022/06/28 09:30:51;;;;;;;;;3.00;3.00;;;;;;;;5097062;27;45261;-43
2022/06/28 09:33:26;;;;;;;;;4.00;2.50;;;;;;;;5096888;27;46755;-44
2022/06/28 09:35:52;;;;;;;;;2.00;2.00;;;;;;;;5097552;27;45367;-46
2022/06/28 09:38:32;;;;;;;;;1.20;1.00;;;;;;;;5085920;27;45550;-47
2022/06/28 09:40:57;;;;;;;;;2.40;2.00;;;;;;;;5078349;27;45558;-48
2022/06/28 09:43:23;;;;;;;;;3.00;3.00;;;;;;;;5096399;27;45895;-50
2022/06/28 09:45:52;;;;;;;;;1.60;1.60;;;;;;;;5094678;27;45405;-49
2022/06/28 09:48:18;;;;;;;;;2.00;2.00;;;;;;;;5096571;27;45412;-46
2022/06/28 09:50:43;;;;;;;;;1.00;1.00;;;;;;;;5096936;27;45723;-48
2022/06/28 09:53:08;;;;;;;;;0.75;0.75;;;;;;;;5093726;27;45932;-49
2022/06/28 09:55:34;;;;;;;;;1.00;1.00;;;;;;;;5096325;27;45370;-54
2022/06/28 09:58:00;;;;;;;;;1.25;1.00;;;;;;;;5096641;27;45393;-49
2022/06/28 10:00:25;;;;;;;;;0.75;0.75;;;;;;;;5095881;27;45330;-48
2022/06/28 10:02:51;;;;;;;;;2.50;1.00;;;;;;;;5095970;27;45919;-47
2022/06/28 10:05:16;;;;;;;;;1.75;1.75;;;;;;;;5093449;27;45368;-45
2022/06/28 10:07:42;;;;;;;;;1.00;1.00;;;;;;;;5095504;27;45347;-45
2022/06/28 10:10:08;;;;;;;;;1.00;1.00;;;;;;;;5089570;27;45356;-51
2022/06/28 10:15:21;;;;;;;;;1.40;1.40;;;;;;;;5088416;27;45433;-52
2022/06/28 10:17:59;;;;;;;;;3.40;2.00;;;;;;;;5080992;27;45395;-48
2022/06/28 10:20:26;;;;;;;;;3.00;2.00;;;;;;;;5087834;27;45687;-49
2022/06/28 10:22:51;;;;;;;;;2.60;1.80;;;;;;;;5079218;27;46244;-50
2022/06/28 10:25:22;;;;;;;;;1.00;1.00;;;;;;;;5096237;27;45339;-47
2022/06/28 10:27:48;;;;;;;;;1.20;1.20;;;;;;;;5091080;27;45715;-46
2022/06/28 10:30:19;;;;;;;;;3.20;2.20;;;;;;;;5095328;27;45551;-50
2022/06/28 10:32:45;;;;;;;;;0.80;0.80;;;;;;;;5096175;27;45425;-49
2022/06/28 10:35:10;;;;;;;;;2.50;2.00;;;;;;;;5096377;27;45469;-48
2022/06/28 10:37:35;;;;;;;;;1.00;1.00;;;;;;;;5096015;27;45369;-49
2022/06/28 10:40:19;;;;;;;;;3.00;1.00;;;;;;;;5096284;27;45444;-46
2022/06/28 10:42:48;;;;;;;;;3.20;1.80;;;;;;;;5094781;27;45492;-47
2022/06/28 10:45:13;;;;;;;;;2.20;2.20;;;;;;;;5096141;27;45424;-47
2022/06/28 10:47:38;;;;;;;;;1.00;1.00;;;;;;;;5094546;27;45374;-52
2022/06/28 10:50:06;;;;;;;;;2.25;2.25;;;;;;;;5095127;27;45351;-50
2022/06/28 10:52:32;;;;;;;;;1.00;1.00;;;;;;;;5094825;27;45655;-52
2022/06/28 10:54:58;;;;;;;;;2.40;2.00;;;;;;;;5076384;27;45945;-50
2022/06/28 10:57:24;;;;;;;;;2.00;2.00;;;;;;;;5096291;27;45314;-47
2022/06/28 10:59:51;;;;;;;;;2.20;1.80;;;;;;;;5095969;27;45306;-48
2022/06/28 11:02:17;;;;;;;;;1.00;1.00;;;;;;;;5095743;27;46692;-50
2022/06/28 11:04:42;;;;;;;;;2.00;2.00;;;;;;;;5095880;27;45383;-50
2022/06/28 11:07:21;;;;;;;;;0.75;0.75;;;;;;;;5093633;27;45469;-52
2022/06/28 11:10:05;;;;;;;;;1.00;1.00;;;;;;;;5095858;27;45330;-48
2022/06/28 11:12:37;;;;;;;;;2.00;2.00;;;;;;;;5094550;27;46776;-50
2022/06/28 11:15:07;;;;;;;;;1.80;1.00;;;;;;;;5095385;27;45289;-52
2022/06/28 11:17:35;;;;;;;;;1.00;1.00;;;;;;;;5096083;27;45360;-50
2022/06/28 11:20:02;;;;;;;;;2.00;2.00;;;;;;;;5099117;27;45412;-50
2022/06/28 11:22:28;;;;;;;;;1.00;1.00;;;;;;;;5095373;27;46479;-50
2022/06/28 11:24:54;;;;;;;;;1.20;1.20;;;;;;;;5095533;27;45402;-48
2022/06/28 11:27:22;;;;;;;;;1.25;1.25;;;;;;;;5091832;27;45248;-47
2022/06/28 11:29:51;;;;;;;;;1.40;1.00;;;;;;;;5096010;27;45287;-50
2022/06/28 11:32:21;;;;;;;;;1.00;1.00;;;;;;;;5093214;27;45599;-48
2022/06/28 11:34:54;;;;;;;;;3.40;3.40;;;;;;;;5095719;27;45471;-50
2022/06/28 11:37:19;;;;;;;;;1.00;1.00;;;;;;;;5096011;27;45393;-48
2022/06/28 11:39:44;;;;;;;;;0.50;0.50;;;;;;;;5097234;27;45895;-46
2022/06/28 11:42:10;;;;;;;;;2.00;1.00;;;;;;;;5082959;27;46558;-49
2022/06/28 11:44:35;;;;;;;;;3.75;3.75;;;;;;;;5096303;27;45427;-48
2022/06/28 11:47:02;;;;;;;;;2.00;1.00;;;;;;;;5097781;27;45355;-48
2022/06/28 11:49:30;;;;;;;;;1.80;1.80;;;;;;;;5099733;27;45267;-46
2022/06/28 11:51:56;;;;;;;;;2.00;1.00;;;;;;;;5098145;27;46028;-45
2022/06/28 11:54:21;;;;;;;;;2.25;2.00;;;;;;;;5098134;27;45429;-48
2022/06/28 11:56:47;;;;;;;;;1.50;1.50;;;;;;;;5090873;27;45409;-52
2022/06/28 11:59:12;;;;;;;;;3.00;1.50;;;;;;;;5052292;27;45401;-53
2022/06/28 12:01:38;;;;;;;;;3.00;2.00;;;;;;;;5078304;27;45875;-49
2022/06/28 12:04:06;;;;;;;;;1.50;1.00;;;;;;;;5069252;27;45451;-48
2022/06/28 12:06:31;;;;;;;;;1.20;1.00;;;;;;;;5099875;27;45383;-48
2022/06/28 12:09:03;;;;;;;;;0.75;0.75;;;;;;;;5115286;27;45887;-53
2022/06/28 12:11:29;;;;;;;;;3.80;2.00;;;;;;;;5114836;27;46601;-48
2022/06/28 12:13:56;;;;;;;;;1.50;1.25;;;;;;;;5115389;27;45452;-47
2022/06/28 12:16:21;;;;;;;;;2.00;2.00;;;;;;;;5111609;27;45458;-44
2022/06/28 12:18:52;;;;;;;;;2.00;2.00;;;;;;;;5094935;27;45413;-45
2022/06/28 12:21:18;;;;;;;;;1.00;1.00;;;;;;;;5094046;27;46446;-50
2022/06/28 12:23:49;;;;;;;;;1.00;1.00;;;;;;;;5093776;27;45802;-49
2022/06/28 12:26:15;;;;;;;;;2.20;2.00;;;;;;;;5094509;27;45907;-45
2022/06/28 12:28:40;;;;;;;;;1.00;1.00;;;;;;;;5094618;27;45691;-48
2022/06/28 12:31:05;;;;;;;;;0.75;0.75;;;;;;;;5087355;27;46173;-53
2022/06/28 12:33:30;;;;;;;;;3.75;1.00;;;;;;;;5093430;27;45327;-48
2022/06/28 12:35:56;;;;;;;;;1.00;1.00;;;;;;;;5081627;27;45751;-51
2022/06/28 12:38:21;;;;;;;;;2.25;2.00;;;;;;;;5091190;27;45629;-48
2022/06/28 12:40:47;;;;;;;;;2.25;1.00;;;;;;;;5093321;27;45679;-56
2022/06/28 12:43:12;;;;;;;;;2.00;2.00;;;;;;;;5093318;27;45477;-54
2022/06/28 12:45:37;;;;;;;;;1.50;1.50;;;;;;;;5092820;27;45568;-51
2022/06/28 12:48:03;;;;;;;;;2.25;0.75;;;;;;;;5093773;27;45551;-50
2022/06/28 12:50:28;;;;;;;;;2.00;2.00;;;;;;;;5092533;27;46492;-48
2022/06/28 12:52:53;;;;;;;;;3.00;3.00;;;;;;;;5092186;27;45716;-49
2022/06/28 12:55:19;;;;;;;;;4.00;2.75;;;;;;;;5092376;27;45775;-51
2022/06/28 12:57:44;;;;;;;;;2.50;2.50;;;;;;;;5081434;27;45414;-49
2022/06/28 13:00:10;;;;;;;;;4.00;4.00;;;;;;;;5092481;27;45861;-53
2022/06/28 13:02:36;;;;;;;;;3.00;3.00;;;;;;;;5092716;27;45634;-55
2022/06/28 13:05:01;;;;;;;;;1.50;1.50;;;;;;;;5093432;27;45386;-52
2022/06/28 13:07:26;;;;;;;;;1.75;1.00;;;;;;;;5092431;27;45520;-52
2022/06/28 13:09:52;;;;;;;;;2.00;2.00;;;;;;;;5092691;27;45868;-45
2022/06/28 13:12:17;;;;;;;;;2.50;2.50;;;;;;;;5092618;27;45414;-50
2022/06/28 13:14:42;;;;;;;;;1.75;1.00;;;;;;;;5092298;27;45675;-48
2022/06/28 13:17:07;;;;;;;;;3.00;1.75;;;;;;;;5093036;27;45337;-50
2022/06/28 13:19:33;;;;;;;;;2.50;2.50;;;;;;;;5092791;27;46956;-49
2022/06/28 13:21:58;;;;;;;;;2.00;2.00;;;;;;;;5092065;27;45397;-51
2022/06/28 13:24:23;;;;;;;;;3.25;3.25;;;;;;;;5092162;27;45426;-54
2022/06/28 13:26:49;;;;;;;;;4.50;3.00;;;;;;;;5091493;27;45673;-49
2022/06/28 13:29:14;;;;;;;;;1.50;1.50;;;;;;;;5092372;27;46968;-49
2022/06/28 13:31:39;;;;;;;;;1.00;1.00;;;;;;;;5091320;27;45389;-49
2022/06/28 13:34:05;;;;;;;;;2.00;2.00;;;;;;;;5092100;27;45442;-48
2022/06/28 13:36:31;;;;;;;;;3.00;3.00;;;;;;;;5092648;27;45539;-50
2022/06/28 13:38:56;;;;;;;;;1.00;1.00;;;;;;;;5091522;27;45547;-51
2022/06/28 13:41:21;;;;;;;;;2.00;2.00;;;;;;;;5091838;27;45449;-54
2022/06/28 13:43:46;;;;;;;;;1.00;1.00;;;;;;;;5091929;27;45391;-53
2022/06/28 13:46:15;;;;;;;;;4.00;4.00;;;;;;;;5090374;27;45488;-52
2022/06/28 13:48:40;;;;;;;;;1.20;1.20;;;;;;;;5091575;27;46636;-49
2022/06/28 13:51:05;;;;;;;;;2.50;2.50;;;;;;;;5092295;27;45883;-52
2022/06/28 13:53:31;;;;;;;;;2.00;1.00;;;;;;;;5091587;27;45486;-51
2022/06/28 13:55:57;;;;;;;;;3.00;3.00;;;;;;;;5079721;27;45415;-53
2022/06/28 13:58:22;;;;;;;;;1.00;1.00;;;;;;;;5040649;27;45604;-52
2022/06/28 14:00:48;;;;;;;;;2.50;2.50;;;;;;;;5091556;27;45740;-49
2022/06/28 14:03:13;;;;;;;;;1.00;1.00;;;;;;;;5091495;27;45752;-52
2022/06/28 14:05:39;;;;;;;;;2.00;1.00;;;;;;;;5092797;27;45751;-47
2022/06/28 14:08:04;;;;;;;;;2.25;2.00;;;;;;;;5092111;27;46649;-46
2022/06/28 14:10:30;;;;;;;;;1.00;1.00;;;;;;;;5092563;27;45348;-49
2022/06/28 14:12:56;;;;;;;;;2.00;2.00;;;;;;;;5074942;27;46029;-52
2022/06/28 14:15:21;;;;;;;;;1.40;1.40;;;;;;;;5091136;27;45811;-51
2022/06/28 14:17:47;;;;;;;;;3.00;1.75;;;;;;;;5091389;27;46887;-57
2022/06/28 14:20:12;;;;;;;;;1.00;1.00;;;;;;;;5090918;27;45439;-51
2022/06/28 14:22:37;;;;;;;;;1.25;1.00;;;;;;;;5091554;27;45750;-50
2022/06/28 14:25:03;;;;;;;;;1.00;1.00;;;;;;;;5091755;27;45958;-52
2022/06/28 14:27:29;;;;;;;;;0.75;0.75;;;;;;;;5091048;27;47807;-50
2022/06/28 14:29:54;;;;;;;;;1.00;1.00;;;;;;;;5091289;27;45476;-52
2022/06/28 14:32:19;;;;;;;;;1.00;1.00;;;;;;;;5083699;27;45737;-54
2022/06/28 14:34:44;;;;;;;;;1.75;1.75;;;;;;;;5071153;27;45551;-52
2022/06/28 14:37:10;;;;;;;;;1.00;1.00;;;;;;;;5070774;28;46679;-52
2022/06/28 14:39:35;;;;;;;;;1.00;1.00;;;;;;;;5091854;27;45748;-55
2022/06/28 14:42:00;;;;;;;;;1.75;1.25;;;;;;;;5092047;27;45761;-55
2022/06/28 14:44:25;;;;;;;;;1.00;1.00;;;;;;;;5089432;27;45778;-50
2022/06/28 14:46:52;;;;;;;;;2.50;1.75;;;;;;;;5091847;27;46494;-48
2022/06/28 14:49:17;;;;;;;;;1.00;1.00;;;;;;;;5090830;27;45526;-46
2022/06/28 14:51:42;;;;;;;;;1.00;1.00;;;;;;;;5091962;27;45875;-45